Flight Track Log - Related Links

Times and Time Zones

All times are in EDT time to prevent confusion due to time zone crossing. See the ASH3735 flight status page for this flight to view local times or setup timezone preferences in your user account.

Time Position Orientation Groundspeed Altitude Reporting Facility
EDT Latitude Longitude Course Direction KTS MPH feet Rate Location/Type
Sat 05:59:51 PM 42.0167 -87.9167 86° East 188 216 2,300  Level Chicago TRACON
Sat 06:00:51 PM 42.0667 -87.8667 37° Northeast 253 291 4,500 2,400 Climbing Chicago TRACON
Sat 06:02:00 PM 41.9416 -87.2406 96° East  Level FlightAware Approximate
Sat 06:02:01 PM 42.1336 -87.7931 39° Northeast 272 313 7,500  Level Chicago Center
Sat 06:03:00 PM 41.9333 -87.0760 90° East  Level FlightAware Approximate
Sat 06:03:03 PM 42.1700 -87.7017 62° Northeast 292 336 10,400  Level Chicago Center
Sat 06:04:00 PM 41.9336 -86.9108 86° East  Level FlightAware Approximate
Sat 06:04:05 PM 42.1394 -87.5922 111° Southeast 317 365 12,800  Level Chicago Center
Sat 06:05:00 PM 41.9404 -86.7709 86° East  Level FlightAware Approximate
Sat 06:05:07 PM 42.0969 -87.4758 116° Southeast 345 397 14,200  Level Chicago Center
Sat 06:06:10 PM 42.0503 -87.3503 117° Southeast 370 426 16,400 2,208 Climbing Chicago Center
Sat 06:07:12 PM 41.9925 -87.1933 116° Southeast 388 447 18,800 2,081 Climbing Chicago Center
Sat 06:08:14 PM 41.9464 -87.0589 115° Southeast 397 457 20,700 1,694 Climbing Chicago Center
Sat 06:09:16 PM 41.9472 -86.9058 90° East 409 471 22,300 1,500 Climbing Chicago Center
Sat 06:10:18 PM 41.9500 -86.7475 89° East 423 487 23,800 1,403 Climbing Chicago Center
Sat 06:11:20 PM 41.9389 -86.5958 96° East 430 495 25,200 1,548 Climbing Chicago Center
Sat 06:12:22 PM 41.9100 -86.4039 101° East 439 505 27,000 1,355 Climbing Chicago Center
Sat 06:13:24 PM 41.8872 -86.2414 101° East 443 510 28,000 1,016 Climbing Chicago Center
Sat 06:14:26 PM 41.8633 -86.0753 101° East 453 521 29,100 1,016 Climbing Chicago Center
Sat 06:15:28 PM 41.8389 -85.9061 101° East 460 529 30,100 1,065 Climbing Chicago Center
Sat 06:16:30 PM 41.8131 -85.7356 101° East 465 535 31,300 1,065 Climbing Chicago Center
Sat 06:17:32 PM 41.7881 -85.5639 101° East 462 532 32,300 919 Climbing Chicago Center
Sat 06:18:34 PM 41.7628 -85.3900 101° East 468 539 33,200 871 Climbing Chicago Center
Sat 06:19:36 PM 41.7356 -85.2192 102° East 456 525 34,100 387 Climbing Chicago Center
Sat 06:20:38 PM 41.7039 -85.0111 101° East 469 540 34,000 -48 Descending Chicago Center
Sat 06:21:40 PM 41.6753 -84.8306 102° East 491 565 34,000  Level Chicago Center
Sat 06:22:42 PM 41.6611 -84.6469 96° East 500 575 34,000  Level Chicago Center
Sat 06:23:20 PM 41.6583 -84.5328 92° East 494 568 34,000  Level Cleveland Center
Sat 06:24:20 PM 41.6500 -84.3433 93° East 500 575 34,000  Level Cleveland Center
Sat 06:25:20 PM 41.6358 -84.1425 95° East 505 581 34,000  Level Cleveland Center
Sat 06:26:20 PM 41.6269 -83.9531 94° East 505 581 34,000  Level Cleveland Center
Sat 06:27:20 PM 41.6175 -83.7692 94° East 500 575 34,000  Level Cleveland Center
Sat 06:28:20 PM 41.6081 -83.5797 94° East 500 575 34,000 -800 Level Cleveland Center
Sat 06:29:20 PM 41.5939 -83.3958 96° East 505 581 32,400 -1,500 Descending Cleveland Center
Sat 06:30:20 PM 41.5817 -83.2119 95° East 505 581 31,000 -700 Descending Cleveland Center
Sat 06:31:20 PM 41.5669 -83.0311 96° East 500 575 31,000  Level Cleveland Center
Sat 06:32:20 PM 41.5433 -82.8553 100° East 494 568 31,000  Level Cleveland Center
Sat 06:33:20 PM 41.5003 -82.7069 111° Southeast 477 549 31,000 -100 Level Cleveland Center
Sat 06:34:20 PM 41.4533 -82.5447 111° Southeast 472 543 30,800 -850 Descending Cleveland Center
Sat 06:35:20 PM 41.4039 -82.3769 111° Southeast 472 543 29,300 -1,300 Descending Cleveland Center
Sat 06:36:20 PM 41.3544 -82.2069 111° Southeast 483 556 28,200 -950 Descending Cleveland Center
Sat 06:37:20 PM 41.3006 -82.0203 111° Southeast 490 564 27,400 -1,650 Descending Cleveland Center
Sat 06:38:20 PM 41.2525 -81.8592 112° Southeast 490 564 24,900 -2,200 Descending Cleveland Center
Sat 06:39:20 PM 41.2019 -81.6925 112° Southeast 485 558 23,000 -2,200 Descending Cleveland Center
Sat 06:40:20 PM 41.1533 -81.5317 112° Southeast 473 544 20,500 -2,100 Descending Cleveland Center
Sat 06:41:20 PM 41.1086 -81.3961 114° Southeast 461 531 18,800 -1,900 Descending Cleveland Center
Sat 06:42:20 PM 41.0617 -81.2439 112° Southeast 446 513 16,700 -2,100 Descending Cleveland Center
Sat 06:43:20 PM 41.0167 -81.0950 112° Southeast 435 501 14,600 -2,000 Descending Cleveland Center
Sat 06:44:20 PM 40.9756 -80.9544 111° Southeast 429 494 12,700 -1,950 Descending Cleveland Center
Sat 06:45:20 PM 40.9319 -80.8167 113° Southeast 417 480 10,700 -1,300 Descending Cleveland Center
Sat 06:46:20 PM 40.8883 -80.6792 113° Southeast 411 473 10,100 -350 Descending Cleveland Center
Sat 06:47:20 PM 40.8156 -80.5667 131° Southeast 387 445 10,000 -50 Descending Cleveland Center
Sat 06:48:20 PM 40.7342 -80.4789 141° Southeast 372 428 10,000  Level Cleveland Center
Sat 06:49:20 PM 40.6569 -80.3914 139° Southeast 372 428 10,000 -400 Level Cleveland Center
Sat 06:50:20 PM 40.5942 -80.3153 137° Southeast 339 390 9,200 -1,300 Descending Cleveland Center
Sat 06:51:20 PM 40.5814 -80.2058 99° East 287 330 7,400 -1,750 Descending Cleveland Center
Sat 06:52:20 PM 40.5789 -80.0964 92° East 287 330 5,700 -1,600 Descending Cleveland Center
Sat 06:53:20 PM 40.5661 -80.0092 101° East 287 330 4,200 -1,500 Descending Cleveland Center

Login

Don't have an account? Register now (free) for customized features, flight alerts, and more!